Robins Air Force Base
KWRB : now visible

Airfield :











YOU CAN JOIN US ON...

 
LOGIN :

Register | Disclaimer

   EN    FR    IT 

 









Legend :    VFR   Marginal VFR   IFR   Intensive IFR   Very Intensive IFR
Visi :
Ceiling :
>= 8 km
>= 3000ft
5 to 8 km
1000 to 3000 ft
1500m to 5 km
500 to 1000 ft
800 to 1500m
200 to 500 ft
< 800m
< 200 ft
Symbols :   Thunderstorms  Fog  Heavy snow  Heavy precipitations  Wind > 20 kt






- Airport Elevation : 294 ft


KWRB - Robins Air Force Base

CURRENT METAR :
  • 282256Z 31006KT 10SM CLR 13/00 A2998 RMK AO2A SLP156 T01341003

EXPIRED METARs :
  • 282156Z 32006KT 10SM CLR 17/00 A2996 RMK AO2A SLP148 T01671001
  • 282056Z 35003KT 10SM CLR 17/M01 A2995 RMK AO2A SLP145 T01701012 57017

TAF TAF KWRB
Valid from the 28 at 21:00 until the 30 at 03:00 UTC


282100Z 2821/3003 VRB06KT 9999 SKC QNH2995INS
BECMG 2908/2909 08006KT 9999 FEW100 QNH2994INS
BECMG 2923/2924 05006KT 8000 -SHRA BKN015 QNH2999INS TX11/2921Z TN05/2911Z



MET'MAP, your aeronautical weather chart ! - Copyright ORBIFLY December 2007 - Disclaimer

ORBIFLY MET'MAP TEAM :

Programming & Development : Alexandra Zaïnal
Concept & original design : Baudouin d'Aumeries
Assistance for programming : Marc-Olivier Méhu
Technical & hardware support : Manuel Goepfert

Contact : metmap@orbifly.com




SOURCES & CREDITS :

   NOAA       Earth
Advisory